sensor_id;sensor_type;location;lat;lon;timestamp;temperature;humidity
5304;DHT22;2674;49.722;10.892;2023-12-14T00:01:14;3.90;99.90
5304;DHT22;2674;49.722;10.892;2023-12-14T00:03:41;4.00;99.90
5304;DHT22;2674;49.722;10.892;2023-12-14T00:06:11;4.00;99.90
5304;DHT22;2674;49.722;10.892;2023-12-14T00:08:37;4.00;99.90
5304;DHT22;2674;49.722;10.892;2023-12-14T00:11:11;3.90;99.90
5304;DHT22;2674;49.722;10.892;2023-12-14T00:13:37;4.00;99.90
5304;DHT22;2674;49.722;10.892;2023-12-14T00:16:03;4.00;99.90
5304;DHT22;2674;49.722;10.892;2023-12-14T00:18:29;4.00;99.90
5304;DHT22;2674;49.722;10.892;2023-12-14T00:20:55;4.00;99.90
5304;DHT22;2674;49.722;10.892;2023-12-14T00:23:24;3.90;99.90
5304;DHT22;2674;49.722;10.892;2023-12-14T00:25:50;3.90;99.90
5304;DHT22;2674;49.722;10.892;2023-12-14T00:28:16;3.90;99.90
5304;DHT22;2674;49.722;10.892;2023-12-14T00:30:42;3.80;99.90
5304;DHT22;2674;49.722;10.892;2023-12-14T00:33:08;3.80;99.90
5304;DHT22;2674;49.722;10.892;2023-12-14T00:35:34;3.70;99.90
5304;DHT22;2674;49.722;10.892;2023-12-14T00:37:59;3.70;99.90
5304;DHT22;2674;49.722;10.892;2023-12-14T00:40:25;3.70;99.90
5304;DHT22;2674;49.722;10.892;2023-12-14T00:42:51;3.70;99.90
5304;DHT22;2674;49.722;10.892;2023-12-14T00:45:17;3.80;99.90
5304;DHT22;2674;49.722;10.892;2023-12-14T00:47:42;3.90;99.90
5304;DHT22;2674;49.722;10.892;2023-12-14T00:50:08;3.90;99.90
5304;DHT22;2674;49.722;10.892;2023-12-14T00:52:34;4.00;99.90
5304;DHT22;2674;49.722;10.892;2023-12-14T00:55:00;4.00;99.90
5304;DHT22;2674;49.722;10.892;2023-12-14T00:57:26;4.00;99.90
5304;DHT22;2674;49.722;10.892;2023-12-14T00:59:52;4.10;99.90
5304;DHT22;2674;49.722;10.892;2023-12-14T01:02:17;4.10;99.90
5304;DHT22;2674;49.722;10.892;2023-12-14T01:04:43;4.10;99.90
5304;DHT22;2674;49.722;10.892;2023-12-14T01:07:09;4.10;99.90
5304;DHT22;2674;49.722;10.892;2023-12-14T01:09:35;4.10;99.90
5304;DHT22;2674;49.722;10.892;2023-12-14T01:12:01;4.00;99.90
5304;DHT22;2674;49.722;10.892;2023-12-14T01:14:27;4.00;99.90
5304;DHT22;2674;49.722;10.892;2023-12-14T01:16:52;4.00;99.90
5304;DHT22;2674;49.722;10.892;2023-12-14T01:19:18;4.00;99.90
5304;DHT22;2674;49.722;10.892;2023-12-14T01:21:44;3.90;99.90
5304;DHT22;2674;49.722;10.892;2023-12-14T01:24:10;3.90;99.90
5304;DHT22;2674;49.722;10.892;2023-12-14T01:26:36;3.90;99.90
5304;DHT22;2674;49.722;10.892;2023-12-14T01:29:02;4.00;99.90
5304;DHT22;2674;49.722;10.892;2023-12-14T01:31:28;4.00;99.90
5304;DHT22;2674;49.722;10.892;2023-12-14T01:33:53;4.10;99.90
5304;DHT22;2674;49.722;10.892;2023-12-14T01:36:23;4.10;99.90
5304;DHT22;2674;49.722;10.892;2023-12-14T01:38:50;4.10;99.90
5304;DHT22;2674;49.722;10.892;2023-12-14T01:41:15;4.20;99.90
5304;DHT22;2674;49.722;10.892;2023-12-14T01:43:41;4.20;99.90
5304;DHT22;2674;49.722;10.892;2023-12-14T01:46:07;4.20;99.90
5304;DHT22;2674;49.722;10.892;2023-12-14T01:48:33;4.10;99.90
5304;DHT22;2674;49.722;10.892;2023-12-14T01:50:59;4.20;99.90
5304;DHT22;2674;49.722;10.892;2023-12-14T01:53:25;4.20;99.90
5304;DHT22;2674;49.722;10.892;2023-12-14T01:55:51;4.20;99.90
5304;DHT22;2674;49.722;10.892;2023-12-14T01:58:17;4.30;99.90
5304;DHT22;2674;49.722;10.892;2023-12-14T02:03:30;4.30;99.90
5304;DHT22;2674;49.722;10.892;2023-12-14T02:05:55;4.30;99.90
5304;DHT22;2674;49.722;10.892;2023-12-14T02:08:24;4.40;99.90
5304;DHT22;2674;49.722;10.892;2023-12-14T02:10:49;4.40;99.90
5304;DHT22;2674;49.722;10.892;2023-12-14T02:13:15;4.40;99.90
5304;DHT22;2674;49.722;10.892;2023-12-14T02:15:41;4.40;99.90
5304;DHT22;2674;49.722;10.892;2023-12-14T02:18:07;4.30;99.90
5304;DHT22;2674;49.722;10.892;2023-12-14T02:20:33;4.40;99.90
5304;DHT22;2674;49.722;10.892;2023-12-14T02:22:59;4.40;99.90
5304;DHT22;2674;49.722;10.892;2023-12-14T02:25:25;4.50;99.90
5304;DHT22;2674;49.722;10.892;2023-12-14T02:27:51;4.50;99.90
5304;DHT22;2674;49.722;10.892;2023-12-14T02:30:17;4.40;99.90
5304;DHT22;2674;49.722;10.892;2023-12-14T02:32:44;4.40;99.90
5304;DHT22;2674;49.722;10.892;2023-12-14T02:35:10;4.50;99.90
5304;DHT22;2674;49.722;10.892;2023-12-14T02:37:36;4.50;99.90
5304;DHT22;2674;49.722;10.892;2023-12-14T02:40:09;4.50;99.90
5304;DHT22;2674;49.722;10.892;2023-12-14T02:42:35;4.40;99.90
5304;DHT22;2674;49.722;10.892;2023-12-14T02:45:01;4.40;99.90
5304;DHT22;2674;49.722;10.892;2023-12-14T02:47:28;4.30;99.90
5304;DHT22;2674;49.722;10.892;2023-12-14T02:49:55;4.30;99.90
5304;DHT22;2674;49.722;10.892;2023-12-14T02:52:21;4.30;99.90
5304;DHT22;2674;49.722;10.892;2023-12-14T02:54:47;4.30;99.90
5304;DHT22;2674;49.722;10.892;2023-12-14T02:57:12;4.20;99.90
5304;DHT22;2674;49.722;10.892;2023-12-14T02:59:39;4.20;99.90
5304;DHT22;2674;49.722;10.892;2023-12-14T03:02:05;4.30;99.90
5304;DHT22;2674;49.722;10.892;2023-12-14T03:04:31;4.30;99.90
5304;DHT22;2674;49.722;10.892;2023-12-14T03:06:57;4.30;99.90
5304;DHT22;2674;49.722;10.892;2023-12-14T03:09:28;4.30;99.90
5304;DHT22;2674;49.722;10.892;2023-12-14T03:11:54;4.40;99.90
5304;DHT22;2674;49.722;10.892;2023-12-14T03:14:19;4.40;99.90
5304;DHT22;2674;49.722;10.892;2023-12-14T03:16:45;4.50;99.90
5304;DHT22;2674;49.722;10.892;2023-12-14T03:19:11;4.50;99.90
5304;DHT22;2674;49.722;10.892;2023-12-14T03:21:37;4.50;99.90
5304;DHT22;2674;49.722;10.892;2023-12-14T03:24:03;4.60;99.90
5304;DHT22;2674;49.722;10.892;2023-12-14T03:26:29;4.50;99.90
5304;DHT22;2674;49.722;10.892;2023-12-14T03:28:55;4.60;99.90
5304;DHT22;2674;49.722;10.892;2023-12-14T03:31:20;4.50;99.90
5304;DHT22;2674;49.722;10.892;2023-12-14T03:33:47;4.50;99.90
5304;DHT22;2674;49.722;10.892;2023-12-14T03:36:12;4.50;99.90
5304;DHT22;2674;49.722;10.892;2023-12-14T03:38:38;4.50;99.90
5304;DHT22;2674;49.722;10.892;2023-12-14T03:41:04;4.60;99.90
5304;DHT22;2674;49.722;10.892;2023-12-14T03:43:30;4.50;99.90
5304;DHT22;2674;49.722;10.892;2023-12-14T03:45:55;4.50;99.90
5304;DHT22;2674;49.722;10.892;2023-12-14T03:48:21;4.50;99.90
5304;DHT22;2674;49.722;10.892;2023-12-14T03:50:47;4.60;99.90
5304;DHT22;2674;49.722;10.892;2023-12-14T03:53:13;4.60;99.90
5304;DHT22;2674;49.722;10.892;2023-12-14T03:55:39;4.60;99.90
5304;DHT22;2674;49.722;10.892;2023-12-14T03:58:04;4.60;99.90
5304;DHT22;2674;49.722;10.892;2023-12-14T04:00:30;4.60;99.90
5304;DHT22;2674;49.722;10.892;2023-12-14T04:02:56;4.60;99.90
5304;DHT22;2674;49.722;10.892;2023-12-14T04:05:22;4.60;99.90
5304;DHT22;2674;49.722;10.892;2023-12-14T04:07:47;4.60;99.90
5304;DHT22;2674;49.722;10.892;2023-12-14T04:10:13;4.60;99.90
5304;DHT22;2674;49.722;10.892;2023-12-14T04:12:39;4.60;99.90
5304;DHT22;2674;49.722;10.892;2023-12-14T04:15:07;4.60;99.90
5304;DHT22;2674;49.722;10.892;2023-12-14T04:17:33;4.60;99.90
5304;DHT22;2674;49.722;10.892;2023-12-14T04:20:00;4.60;99.90
5304;DHT22;2674;49.722;10.892;2023-12-14T04:22:26;4.70;99.90
5304;DHT22;2674;49.722;10.892;2023-12-14T04:24:52;4.70;99.90
5304;DHT22;2674;49.722;10.892;2023-12-14T04:27:18;4.70;99.90
5304;DHT22;2674;49.722;10.892;2023-12-14T04:29:44;4.70;99.90
5304;DHT22;2674;49.722;10.892;2023-12-14T04:32:10;4.70;99.90
5304;DHT22;2674;49.722;10.892;2023-12-14T04:34:36;4.70;99.90
5304;DHT22;2674;49.722;10.892;2023-12-14T04:37:02;4.70;99.90
5304;DHT22;2674;49.722;10.892;2023-12-14T04:39:28;4.70;99.90
5304;DHT22;2674;49.722;10.892;2023-12-14T04:41:54;4.70;99.90
5304;DHT22;2674;49.722;10.892;2023-12-14T04:44:20;4.70;99.90
5304;DHT22;2674;49.722;10.892;2023-12-14T04:46:47;4.70;99.90
5304;DHT22;2674;49.722;10.892;2023-12-14T04:49:13;4.70;99.90
5304;DHT22;2674;49.722;10.892;2023-12-14T04:51:39;4.70;99.90
5304;DHT22;2674;49.722;10.892;2023-12-14T04:54:05;4.60;99.90
5304;DHT22;2674;49.722;10.892;2023-12-14T04:56:31;4.70;99.90
5304;DHT22;2674;49.722;10.892;2023-12-14T04:58:56;4.60;99.90
5304;DHT22;2674;49.722;10.892;2023-12-14T05:01:22;4.60;99.90
5304;DHT22;2674;49.722;10.892;2023-12-14T05:03:48;4.60;99.90
5304;DHT22;2674;49.722;10.892;2023-12-14T05:06:14;4.60;99.90
5304;DHT22;2674;49.722;10.892;2023-12-14T05:08:40;4.60;99.90
5304;DHT22;2674;49.722;10.892;2023-12-14T05:11:05;4.60;99.90
5304;DHT22;2674;49.722;10.892;2023-12-14T05:13:31;4.60;99.90
5304;DHT22;2674;49.722;10.892;2023-12-14T05:15:57;4.50;99.90
5304;DHT22;2674;49.722;10.892;2023-12-14T05:18:27;4.50;99.90
5304;DHT22;2674;49.722;10.892;2023-12-14T05:20:52;4.40;99.90
5304;DHT22;2674;49.722;10.892;2023-12-14T05:23:19;4.30;99.90
5304;DHT22;2674;49.722;10.892;2023-12-14T05:25:44;4.30;99.90
5304;DHT22;2674;49.722;10.892;2023-12-14T05:28:10;4.20;99.90
5304;DHT22;2674;49.722;10.892;2023-12-14T05:30:36;4.20;99.90
5304;DHT22;2674;49.722;10.892;2023-12-14T05:33:02;4.20;99.90
5304;DHT22;2674;49.722;10.892;2023-12-14T05:35:28;4.10;99.90
5304;DHT22;2674;49.722;10.892;2023-12-14T05:37:54;4.10;99.90
5304;DHT22;2674;49.722;10.892;2023-12-14T05:40:20;4.10;99.90
5304;DHT22;2674;49.722;10.892;2023-12-14T05:42:45;4.10;99.90
5304;DHT22;2674;49.722;10.892;2023-12-14T05:45:11;4.10;99.90
5304;DHT22;2674;49.722;10.892;2023-12-14T05:47:37;4.10;99.90
5304;DHT22;2674;49.722;10.892;2023-12-14T05:50:04;4.10;99.90
5304;DHT22;2674;49.722;10.892;2023-12-14T05:52:30;4.10;99.90
5304;DHT22;2674;49.722;10.892;2023-12-14T05:54:56;4.10;99.90
5304;DHT22;2674;49.722;10.892;2023-12-14T05:57:22;4.10;99.90
5304;DHT22;2674;49.722;10.892;2023-12-14T05:59:50;4.00;99.90
5304;DHT22;2674;49.722;10.892;2023-12-14T06:02:16;4.10;99.90
5304;DHT22;2674;49.722;10.892;2023-12-14T06:04:42;4.10;99.90
5304;DHT22;2674;49.722;10.892;2023-12-14T06:07:08;4.10;99.90
5304;DHT22;2674;49.722;10.892;2023-12-14T06:09:34;4.00;99.90
5304;DHT22;2674;49.722;10.892;2023-12-14T06:12:01;4.00;99.90
5304;DHT22;2674;49.722;10.892;2023-12-14T06:14:28;4.00;99.90
5304;DHT22;2674;49.722;10.892;2023-12-14T06:16:54;4.00;99.90
5304;DHT22;2674;49.722;10.892;2023-12-14T06:19:20;3.90;99.90
5304;DHT22;2674;49.722;10.892;2023-12-14T06:21:46;3.90;99.90
5304;DHT22;2674;49.722;10.892;2023-12-14T06:24:12;3.90;99.90
5304;DHT22;2674;49.722;10.892;2023-12-14T06:26:42;4.00;99.90
5304;DHT22;2674;49.722;10.892;2023-12-14T06:29:11;4.00;99.90
5304;DHT22;2674;49.722;10.892;2023-12-14T06:31:38;4.10;99.90
5304;DHT22;2674;49.722;10.892;2023-12-14T06:34:05;4.10;99.90
5304;DHT22;2674;49.722;10.892;2023-12-14T06:36:31;4.10;99.90
5304;DHT22;2674;49.722;10.892;2023-12-14T06:38:58;4.10;99.90
5304;DHT22;2674;49.722;10.892;2023-12-14T06:41:25;4.10;99.90
5304;DHT22;2674;49.722;10.892;2023-12-14T06:43:51;4.10;99.90
5304;DHT22;2674;49.722;10.892;2023-12-14T06:46:17;4.10;99.90
5304;DHT22;2674;49.722;10.892;2023-12-14T06:48:43;4.10;99.90
5304;DHT22;2674;49.722;10.892;2023-12-14T06:51:09;4.10;99.90
5304;DHT22;2674;49.722;10.892;2023-12-14T06:53:35;4.10;99.90
5304;DHT22;2674;49.722;10.892;2023-12-14T06:56:03;4.20;99.90
5304;DHT22;2674;49.722;10.892;2023-12-14T06:58:29;4.20;99.90
5304;DHT22;2674;49.722;10.892;2023-12-14T07:00:58;4.20;99.90
5304;DHT22;2674;49.722;10.892;2023-12-14T07:03:24;4.20;99.90
5304;DHT22;2674;49.722;10.892;2023-12-14T07:05:50;4.20;99.90
5304;DHT22;2674;49.722;10.892;2023-12-14T07:08:15;4.20;99.90
5304;DHT22;2674;49.722;10.892;2023-12-14T07:10:41;4.30;99.90
5304;DHT22;2674;49.722;10.892;2023-12-14T07:13:08;4.30;99.90
5304;DHT22;2674;49.722;10.892;2023-12-14T07:15:34;4.30;99.90
5304;DHT22;2674;49.722;10.892;2023-12-14T07:17:59;4.30;99.90
5304;DHT22;2674;49.722;10.892;2023-12-14T07:20:25;4.30;99.90
5304;DHT22;2674;49.722;10.892;2023-12-14T07:22:51;4.30;99.90
5304;DHT22;2674;49.722;10.892;2023-12-14T07:25:17;4.40;99.90
5304;DHT22;2674;49.722;10.892;2023-12-14T07:27:42;4.40;99.90
5304;DHT22;2674;49.722;10.892;2023-12-14T07:30:09;4.40;99.90
5304;DHT22;2674;49.722;10.892;2023-12-14T07:32:35;4.40;99.90
5304;DHT22;2674;49.722;10.892;2023-12-14T07:35:01;4.40;99.90
5304;DHT22;2674;49.722;10.892;2023-12-14T07:37:27;4.40;99.90
5304;DHT22;2674;49.722;10.892;2023-12-14T07:39:52;4.40;99.90
5304;DHT22;2674;49.722;10.892;2023-12-14T07:42:18;4.40;99.90
5304;DHT22;2674;49.722;10.892;2023-12-14T07:44:47;4.50;99.90
5304;DHT22;2674;49.722;10.892;2023-12-14T07:47:13;4.50;99.90
5304;DHT22;2674;49.722;10.892;2023-12-14T07:49:39;4.50;99.90
5304;DHT22;2674;49.722;10.892;2023-12-14T07:52:05;4.40;99.90
5304;DHT22;2674;49.722;10.892;2023-12-14T07:54:31;4.40;99.90
5304;DHT22;2674;49.722;10.892;2023-12-14T07:56:57;4.40;99.90
5304;DHT22;2674;49.722;10.892;2023-12-14T07:59:22;4.50;99.90
5304;DHT22;2674;49.722;10.892;2023-12-14T08:01:48;4.50;99.90
5304;DHT22;2674;49.722;10.892;2023-12-14T08:04:14;4.60;99.90
5304;DHT22;2674;49.722;10.892;2023-12-14T08:06:40;4.90;99.90
5304;DHT22;2674;49.722;10.892;2023-12-14T08:09:06;5.40;99.90
5304;DHT22;2674;49.722;10.892;2023-12-14T08:11:32;5.90;99.90
5304;DHT22;2674;49.722;10.892;2023-12-14T08:13:58;6.10;99.90
5304;DHT22;2674;49.722;10.892;2023-12-14T08:16:24;5.90;99.90
5304;DHT22;2674;49.722;10.892;2023-12-14T08:18:50;5.70;99.90
5304;DHT22;2674;49.722;10.892;2023-12-14T08:21:16;5.60;99.90
5304;DHT22;2674;49.722;10.892;2023-12-14T08:23:42;5.50;99.90
5304;DHT22;2674;49.722;10.892;2023-12-14T08:26:08;5.40;99.90
5304;DHT22;2674;49.722;10.892;2023-12-14T08:28:36;5.40;99.90
5304;DHT22;2674;49.722;10.892;2023-12-14T08:31:02;5.40;99.90
5304;DHT22;2674;49.722;10.892;2023-12-14T08:33:29;5.30;99.90
5304;DHT22;2674;49.722;10.892;2023-12-14T08:35:55;5.30;99.90
5304;DHT22;2674;49.722;10.892;2023-12-14T08:38:21;5.30;99.90
5304;DHT22;2674;49.722;10.892;2023-12-14T08:40:47;5.30;99.90
5304;DHT22;2674;49.722;10.892;2023-12-14T08:43:13;5.40;99.90
5304;DHT22;2674;49.722;10.892;2023-12-14T08:45:39;5.40;99.90
5304;DHT22;2674;49.722;10.892;2023-12-14T08:48:05;5.40;99.90
5304;DHT22;2674;49.722;10.892;2023-12-14T08:50:31;5.40;99.90
5304;DHT22;2674;49.722;10.892;2023-12-14T08:52:57;5.40;99.90
5304;DHT22;2674;49.722;10.892;2023-12-14T08:55:26;5.50;99.90
5304;DHT22;2674;49.722;10.892;2023-12-14T08:57:52;5.50;99.90
5304;DHT22;2674;49.722;10.892;2023-12-14T09:00:18;5.60;99.90
5304;DHT22;2674;49.722;10.892;2023-12-14T09:02:45;5.60;99.90
5304;DHT22;2674;49.722;10.892;2023-12-14T09:05:14;5.60;99.90
5304;DHT22;2674;49.722;10.892;2023-12-14T09:07:43;5.70;99.90
5304;DHT22;2674;49.722;10.892;2023-12-14T09:10:09;5.80;99.90
5304;DHT22;2674;49.722;10.892;2023-12-14T09:12:35;5.80;99.90
5304;DHT22;2674;49.722;10.892;2023-12-14T09:15:01;5.80;99.90
5304;DHT22;2674;49.722;10.892;2023-12-14T09:17:27;5.80;99.90
5304;DHT22;2674;49.722;10.892;2023-12-14T09:19:59;5.90;99.90
5304;DHT22;2674;49.722;10.892;2023-12-14T09:22:25;5.90;99.90
5304;DHT22;2674;49.722;10.892;2023-12-14T09:24:51;6.00;99.90
5304;DHT22;2674;49.722;10.892;2023-12-14T09:27:17;6.00;99.90
5304;DHT22;2674;49.722;10.892;2023-12-14T09:29:43;6.10;99.90
5304;DHT22;2674;49.722;10.892;2023-12-14T09:32:09;6.10;99.90
5304;DHT22;2674;49.722;10.892;2023-12-14T09:34:35;6.20;99.90
5304;DHT22;2674;49.722;10.892;2023-12-14T09:37:00;6.20;99.90
5304;DHT22;2674;49.722;10.892;2023-12-14T09:39:26;6.30;99.90
5304;DHT22;2674;49.722;10.892;2023-12-14T09:42:04;6.30;99.90
5304;DHT22;2674;49.722;10.892;2023-12-14T09:44:31;6.30;99.90
5304;DHT22;2674;49.722;10.892;2023-12-14T09:47:01;6.30;99.90
5304;DHT22;2674;49.722;10.892;2023-12-14T09:49:29;6.30;99.90
5304;DHT22;2674;49.722;10.892;2023-12-14T09:51:59;6.30;99.90
5304;DHT22;2674;49.722;10.892;2023-12-14T09:54:26;6.30;99.90
5304;DHT22;2674;49.722;10.892;2023-12-14T09:56:53;6.30;99.90
5304;DHT22;2674;49.722;10.892;2023-12-14T09:59:19;6.30;99.90
5304;DHT22;2674;49.722;10.892;2023-12-14T10:01:45;6.30;99.90
5304;DHT22;2674;49.722;10.892;2023-12-14T10:04:17;6.40;99.90
5304;DHT22;2674;49.722;10.892;2023-12-14T10:06:45;6.40;99.90
5304;DHT22;2674;49.722;10.892;2023-12-14T10:09:11;6.50;99.90
5304;DHT22;2674;49.722;10.892;2023-12-14T10:11:44;6.50;99.90
5304;DHT22;2674;49.722;10.892;2023-12-14T10:14:21;6.50;99.90
5304;DHT22;2674;49.722;10.892;2023-12-14T10:16:48;6.50;99.90
5304;DHT22;2674;49.722;10.892;2023-12-14T10:19:17;6.50;99.90
5304;DHT22;2674;49.722;10.892;2023-12-14T10:21:43;6.60;99.90
5304;DHT22;2674;49.722;10.892;2023-12-14T10:24:08;6.60;99.90
5304;DHT22;2674;49.722;10.892;2023-12-14T10:26:35;6.70;99.90
5304;DHT22;2674;49.722;10.892;2023-12-14T10:29:01;6.70;99.90
5304;DHT22;2674;49.722;10.892;2023-12-14T10:31:30;6.80;99.90
5304;DHT22;2674;49.722;10.892;2023-12-14T10:33:56;6.90;99.90
5304;DHT22;2674;49.722;10.892;2023-12-14T10:36:25;7.00;99.90
5304;DHT22;2674;49.722;10.892;2023-12-14T10:38:57;7.10;99.90
5304;DHT22;2674;49.722;10.892;2023-12-14T10:41:24;7.10;99.90
5304;DHT22;2674;49.722;10.892;2023-12-14T10:43:54;7.10;99.90
5304;DHT22;2674;49.722;10.892;2023-12-14T10:46:20;7.20;99.90
5304;DHT22;2674;49.722;10.892;2023-12-14T10:48:50;7.10;99.90
5304;DHT22;2674;49.722;10.892;2023-12-14T10:51:21;7.10;99.90
5304;DHT22;2674;49.722;10.892;2023-12-14T10:53:48;7.10;99.90
5304;DHT22;2674;49.722;10.892;2023-12-14T10:56:16;7.10;99.90
5304;DHT22;2674;49.722;10.892;2023-12-14T10:59:08;7.10;99.90
5304;DHT22;2674;49.722;10.892;2023-12-14T11:01:35;7.00;99.90
5304;DHT22;2674;49.722;10.892;2023-12-14T11:04:06;7.00;99.90
5304;DHT22;2674;49.722;10.892;2023-12-14T11:06:34;7.00;99.90
5304;DHT22;2674;49.722;10.892;2023-12-14T11:09:08;7.00;99.90
5304;DHT22;2674;49.722;10.892;2023-12-14T11:11:57;7.00;99.90
5304;DHT22;2674;49.722;10.892;2023-12-14T11:14:24;7.00;99.90
5304;DHT22;2674;49.722;10.892;2023-12-14T11:16:54;7.00;99.90
5304;DHT22;2674;49.722;10.892;2023-12-14T11:19:24;7.00;99.90
5304;DHT22;2674;49.722;10.892;2023-12-14T11:24:22;6.90;99.90
5304;DHT22;2674;49.722;10.892;2023-12-14T11:26:51;6.90;99.90
5304;DHT22;2674;49.722;10.892;2023-12-14T11:29:18;6.90;99.90
5304;DHT22;2674;49.722;10.892;2023-12-14T11:31:48;6.90;99.90
5304;DHT22;2674;49.722;10.892;2023-12-14T11:34:17;6.80;99.90
5304;DHT22;2674;49.722;10.892;2023-12-14T11:36:43;6.80;99.90
5304;DHT22;2674;49.722;10.892;2023-12-14T11:39:11;6.80;99.90
5304;DHT22;2674;49.722;10.892;2023-12-14T11:41:37;6.80;99.90
5304;DHT22;2674;49.722;10.892;2023-12-14T11:44:04;6.70;99.90
5304;DHT22;2674;49.722;10.892;2023-12-14T11:46:30;6.70;99.90
5304;DHT22;2674;49.722;10.892;2023-12-14T11:48:58;6.70;99.90
5304;DHT22;2674;49.722;10.892;2023-12-14T11:51:24;6.70;99.90
5304;DHT22;2674;49.722;10.892;2023-12-14T11:53:55;6.70;99.90
5304;DHT22;2674;49.722;10.892;2023-12-14T11:56:25;6.70;99.90
5304;DHT22;2674;49.722;10.892;2023-12-14T11:58:58;6.70;99.90
5304;DHT22;2674;49.722;10.892;2023-12-14T12:01:24;6.70;99.90
5304;DHT22;2674;49.722;10.892;2023-12-14T12:03:53;6.70;99.90
5304;DHT22;2674;49.722;10.892;2023-12-14T12:06:24;6.70;99.90
5304;DHT22;2674;49.722;10.892;2023-12-14T12:08:50;6.70;99.90
5304;DHT22;2674;49.722;10.892;2023-12-14T12:11:21;6.70;99.90
5304;DHT22;2674;49.722;10.892;2023-12-14T12:13:57;6.70;99.90
5304;DHT22;2674;49.722;10.892;2023-12-14T12:16:25;6.70;99.90
5304;DHT22;2674;49.722;10.892;2023-12-14T12:18:51;6.70;99.90
5304;DHT22;2674;49.722;10.892;2023-12-14T12:21:17;6.70;99.90
5304;DHT22;2674;49.722;10.892;2023-12-14T12:23:43;6.70;99.90
5304;DHT22;2674;49.722;10.892;2023-12-14T12:26:09;6.70;99.90
5304;DHT22;2674;49.722;10.892;2023-12-14T12:28:35;6.70;99.90
5304;DHT22;2674;49.722;10.892;2023-12-14T12:31:02;6.60;99.90
5304;DHT22;2674;49.722;10.892;2023-12-14T12:33:28;6.60;99.90
5304;DHT22;2674;49.722;10.892;2023-12-14T12:35:54;6.60;99.90
5304;DHT22;2674;49.722;10.892;2023-12-14T12:38:20;6.60;99.90
5304;DHT22;2674;49.722;10.892;2023-12-14T12:40:46;6.60;99.90
5304;DHT22;2674;49.722;10.892;2023-12-14T12:43:13;6.60;99.90
5304;DHT22;2674;49.722;10.892;2023-12-14T12:45:40;6.60;99.90
5304;DHT22;2674;49.722;10.892;2023-12-14T12:48:06;6.60;99.90
5304;DHT22;2674;49.722;10.892;2023-12-14T12:50:33;6.50;99.90
5304;DHT22;2674;49.722;10.892;2023-12-14T12:52:59;6.50;99.90
5304;DHT22;2674;49.722;10.892;2023-12-14T12:55:24;6.50;99.90
5304;DHT22;2674;49.722;10.892;2023-12-14T12:57:50;6.50;99.90
5304;DHT22;2674;49.722;10.892;2023-12-14T13:00:16;6.50;99.90
5304;DHT22;2674;49.722;10.892;2023-12-14T13:02:43;6.50;99.90
5304;DHT22;2674;49.722;10.892;2023-12-14T13:05:10;6.50;99.90
5304;DHT22;2674;49.722;10.892;2023-12-14T13:07:37;6.50;99.90
5304;DHT22;2674;49.722;10.892;2023-12-14T13:10:06;6.50;99.90
5304;DHT22;2674;49.722;10.892;2023-12-14T13:12:32;6.50;99.90
5304;DHT22;2674;49.722;10.892;2023-12-14T13:14:59;6.50;99.90
5304;DHT22;2674;49.722;10.892;2023-12-14T13:17:25;6.50;99.90
5304;DHT22;2674;49.722;10.892;2023-12-14T13:19:52;6.50;99.90
5304;DHT22;2674;49.722;10.892;2023-12-14T13:22:18;6.40;99.90
5304;DHT22;2674;49.722;10.892;2023-12-14T13:24:45;6.50;99.90
5304;DHT22;2674;49.722;10.892;2023-12-14T13:27:11;6.50;99.90
5304;DHT22;2674;49.722;10.892;2023-12-14T13:29:37;6.50;99.90
5304;DHT22;2674;49.722;10.892;2023-12-14T13:32:02;6.40;99.90
5304;DHT22;2674;49.722;10.892;2023-12-14T13:34:28;6.50;99.90
5304;DHT22;2674;49.722;10.892;2023-12-14T13:36:55;6.50;99.90
5304;DHT22;2674;49.722;10.892;2023-12-14T13:39:21;6.50;99.90
5304;DHT22;2674;49.722;10.892;2023-12-14T13:41:47;6.50;99.90
5304;DHT22;2674;49.722;10.892;2023-12-14T13:44:13;6.40;99.90
5304;DHT22;2674;49.722;10.892;2023-12-14T13:46:39;6.40;99.90
5304;DHT22;2674;49.722;10.892;2023-12-14T13:49:05;6.40;99.90
5304;DHT22;2674;49.722;10.892;2023-12-14T13:51:31;6.40;99.90
5304;DHT22;2674;49.722;10.892;2023-12-14T13:53:57;6.50;99.90
5304;DHT22;2674;49.722;10.892;2023-12-14T13:56:22;6.50;99.90
5304;DHT22;2674;49.722;10.892;2023-12-14T13:58:48;6.50;99.90
5304;DHT22;2674;49.722;10.892;2023-12-14T14:01:14;6.50;99.90
5304;DHT22;2674;49.722;10.892;2023-12-14T14:04:00;6.50;99.90
5304;DHT22;2674;49.722;10.892;2023-12-14T14:06:26;6.50;99.90
5304;DHT22;2674;49.722;10.892;2023-12-14T14:08:51;6.40;99.90
5304;DHT22;2674;49.722;10.892;2023-12-14T14:11:17;6.50;99.90
5304;DHT22;2674;49.722;10.892;2023-12-14T14:13:43;6.40;99.90
5304;DHT22;2674;49.722;10.892;2023-12-14T14:16:09;6.40;99.90
5304;DHT22;2674;49.722;10.892;2023-12-14T14:18:35;6.40;99.90
5304;DHT22;2674;49.722;10.892;2023-12-14T14:21:00;6.40;99.90
5304;DHT22;2674;49.722;10.892;2023-12-14T14:23:26;6.40;99.90
5304;DHT22;2674;49.722;10.892;2023-12-14T14:25:52;6.40;99.90
5304;DHT22;2674;49.722;10.892;2023-12-14T14:28:22;6.50;99.90
5304;DHT22;2674;49.722;10.892;2023-12-14T14:30:48;6.50;99.90
5304;DHT22;2674;49.722;10.892;2023-12-14T14:33:15;6.40;99.90
5304;DHT22;2674;49.722;10.892;2023-12-14T14:35:47;6.40;99.90
5304;DHT22;2674;49.722;10.892;2023-12-14T14:38:14;6.50;99.90
5304;DHT22;2674;49.722;10.892;2023-12-14T14:40:41;6.50;99.90
5304;DHT22;2674;49.722;10.892;2023-12-14T14:43:08;6.50;99.90
5304;DHT22;2674;49.722;10.892;2023-12-14T14:45:35;6.50;99.90
5304;DHT22;2674;49.722;10.892;2023-12-14T14:48:01;6.40;99.90
5304;DHT22;2674;49.722;10.892;2023-12-14T14:50:26;6.40;99.90
5304;DHT22;2674;49.722;10.892;2023-12-14T14:52:52;6.40;99.90
5304;DHT22;2674;49.722;10.892;2023-12-14T14:55:18;6.40;99.90
5304;DHT22;2674;49.722;10.892;2023-12-14T14:57:44;6.40;99.90
5304;DHT22;2674;49.722;10.892;2023-12-14T15:00:10;6.40;99.90
5304;DHT22;2674;49.722;10.892;2023-12-14T15:02:36;6.40;99.90
5304;DHT22;2674;49.722;10.892;2023-12-14T15:05:01;6.40;99.90
5304;DHT22;2674;49.722;10.892;2023-12-14T15:07:27;6.40;99.90
5304;DHT22;2674;49.722;10.892;2023-12-14T15:09:54;6.40;99.90
5304;DHT22;2674;49.722;10.892;2023-12-14T15:12:20;6.30;99.90
5304;DHT22;2674;49.722;10.892;2023-12-14T15:14:46;6.30;99.90
5304;DHT22;2674;49.722;10.892;2023-12-14T15:17:12;6.30;99.90
5304;DHT22;2674;49.722;10.892;2023-12-14T15:19:38;6.30;99.90
5304;DHT22;2674;49.722;10.892;2023-12-14T15:22:04;6.30;99.90
5304;DHT22;2674;49.722;10.892;2023-12-14T15:24:30;6.30;99.90
5304;DHT22;2674;49.722;10.892;2023-12-14T15:26:57;6.30;99.90
5304;DHT22;2674;49.722;10.892;2023-12-14T15:29:24;6.30;99.90
5304;DHT22;2674;49.722;10.892;2023-12-14T15:31:49;6.30;99.90
5304;DHT22;2674;49.722;10.892;2023-12-14T15:34:18;6.30;99.90
5304;DHT22;2674;49.722;10.892;2023-12-14T15:36:44;6.30;99.90
5304;DHT22;2674;49.722;10.892;2023-12-14T15:39:09;6.30;99.90
5304;DHT22;2674;49.722;10.892;2023-12-14T15:41:35;6.20;99.90
5304;DHT22;2674;49.722;10.892;2023-12-14T15:44:01;6.20;99.90
5304;DHT22;2674;49.722;10.892;2023-12-14T15:46:27;6.20;99.90
5304;DHT22;2674;49.722;10.892;2023-12-14T15:48:52;6.20;99.90
5304;DHT22;2674;49.722;10.892;2023-12-14T15:51:18;6.10;99.90
5304;DHT22;2674;49.722;10.892;2023-12-14T15:53:44;6.10;99.90
5304;DHT22;2674;49.722;10.892;2023-12-14T15:56:10;6.10;99.90
5304;DHT22;2674;49.722;10.892;2023-12-14T15:58:35;6.10;99.90
5304;DHT22;2674;49.722;10.892;2023-12-14T16:01:01;6.10;99.90
5304;DHT22;2674;49.722;10.892;2023-12-14T16:03:27;6.10;99.90